Terminal Aerodrome Forecast
Issued by NWS

Home | Current Version | Previous Version | Text Only | Print | Product List | Glossary On
Versions: 1 2 3 4 5 6 7 8 9 10 11 12 13 14 15 16 17 18
000
FTUS44 KLZK 261151 CCA
TAFADF
TAF COR
KADF 261151Z 2612/2712 VRB05KT P6SM FEW250
     FM261500 17005KT P6SM SCT250
     FM270100 12005KT P6SM VCSH BKN025 OVC040
     FM270400 10004KT 6SM -SHRA BKN025 OVC035=

USA.gov is the U.S. government's official web portal to all federal, state and local government web resources and services.